createdAt,value
2022-12-15T00:07:56.147Z,14.70
2022-12-15T00:16:37.777Z,9.90
2022-12-15T00:25:19.427Z,10.80
2022-12-15T00:34:00.848Z,11.40
2022-12-15T00:42:23.717Z,15.70
2022-12-15T00:50:52.595Z,14.00
2022-12-15T00:59:35.934Z,14.70
2022-12-15T01:08:21.030Z,15.20
2022-12-15T01:17:02.768Z,12.00
2022-12-15T01:25:27.752Z,12.50
2022-12-15T01:33:53.890Z,15.80
2022-12-15T01:42:16.893Z,17.70
2022-12-15T01:50:44.126Z,20.00
2022-12-15T01:59:12.283Z,18.20
2022-12-15T02:07:35.183Z,17.40
2022-12-15T02:16:38.679Z,18.40
2022-12-15T02:25:07.746Z,17.80
2022-12-15T02:33:33.297Z,15.50
2022-12-15T02:41:56.440Z,17.50
2022-12-15T02:50:39.997Z,22.00
2022-12-15T02:59:35.446Z,25.70
2022-12-15T03:07:58.897Z,22.20
2022-12-15T03:16:22.446Z,21.50
2022-12-15T03:24:45.413Z,19.80
2022-12-15T03:33:08.779Z,16.40
2022-12-15T03:41:31.675Z,25.60
2022-12-15T03:49:54.548Z,21.60
2022-12-15T03:58:17.604Z,20.30
2022-12-15T04:06:40.483Z,20.20
2022-12-15T04:15:03.614Z,18.50
2022-12-15T04:23:26.696Z,25.10
2022-12-15T04:32:08.589Z,26.30
2022-12-15T04:40:50.179Z,22.30
2022-12-15T04:49:31.774Z,19.30
2022-12-15T04:58:13.333Z,19.40
2022-12-15T05:06:55.259Z,24.40
2022-12-15T05:15:38.595Z,25.50
2022-12-15T05:24:20.315Z,21.10
2022-12-15T05:32:43.214Z,18.40
2022-12-15T05:41:06.183Z,21.40
2022-12-15T05:49:29.169Z,25.20
2022-12-15T05:57:53.456Z,29.10
2022-12-15T06:06:16.603Z,19.10
2022-12-15T06:14:39.549Z,23.40
2022-12-15T06:23:02.367Z,29.80
2022-12-15T06:31:26.994Z,22.20
2022-12-15T06:39:50.179Z,21.70
2022-12-15T06:48:13.102Z,26.20
2022-12-15T06:56:36.287Z,35.20
2022-12-15T07:04:59.468Z,27.80
2022-12-15T07:13:22.579Z,26.00
2022-12-15T07:21:45.558Z,20.40
2022-12-15T07:30:09.088Z,28.40
2022-12-15T07:38:32.327Z,26.80
2022-12-15T07:46:55.820Z,30.00
2022-12-15T07:55:37.234Z,23.80
2022-12-15T08:04:02.735Z,25.30
2022-12-15T08:12:27.800Z,31.50
2022-12-15T08:20:51.341Z,33.00
2022-12-15T08:38:02.278Z,86.60
2022-12-15T08:46:33.906Z,42.00
2022-12-15T08:54:56.946Z,54.90
2022-12-15T09:03:19.894Z,37.30
2022-12-15T09:11:42.890Z,38.40
2022-12-15T09:20:06.768Z,48.10
2022-12-15T09:28:32.225Z,47.30
2022-12-15T09:36:55.379Z,54.40
2022-12-15T09:45:22.461Z,33.50
2022-12-15T09:53:55.838Z,39.00
2022-12-15T10:02:28.817Z,25.60
2022-12-15T10:10:51.854Z,26.00
2022-12-15T10:19:24.347Z,33.60
2022-12-15T10:28:07.995Z,30.80
2022-12-15T10:36:30.890Z,27.80
2022-12-15T10:44:56.608Z,35.70
2022-12-15T10:53:50.496Z,37.40
2022-12-15T11:02:24.569Z,36.90
2022-12-15T11:11:17.599Z,34.60
2022-12-15T11:19:54.019Z,37.90
2022-12-15T11:28:28.724Z,30.50
2022-12-15T11:37:04.115Z,38.00
2022-12-15T11:46:05.779Z,34.20
2022-12-15T11:54:39.847Z,84.60
2022-12-15T12:03:25.435Z,85.70
2022-12-15T12:12:05.852Z,144.50
2022-12-15T12:20:42.204Z,83.50
2022-12-15T12:29:13.329Z,51.60
2022-12-15T12:46:44.602Z,55.50
2022-12-15T12:55:26.447Z,67.50
2022-12-15T13:04:34.113Z,47.50
2022-12-15T13:13:01.432Z,53.50
2022-12-15T13:21:44.234Z,48.70
2022-12-15T13:30:07.233Z,97.60
2022-12-15T13:38:56.620Z,48.40
2022-12-15T13:47:28.847Z,58.60
2022-12-15T13:56:06.968Z,49.80
2022-12-15T14:04:29.872Z,42.00
2022-12-15T14:12:57.346Z,40.20
2022-12-15T14:21:27.071Z,53.60
2022-12-15T14:29:50.778Z,39.20
2022-12-15T14:38:22.326Z,39.20
2022-12-15T14:46:49.712Z,32.90
2022-12-15T14:55:23.475Z,37.10
2022-12-15T15:03:07.202Z,100.20
2022-12-15T15:03:57.068Z,28.40
2022-12-15T15:12:23.032Z,29.90
2022-12-15T15:20:58.066Z,39.70
2022-12-15T15:29:38.684Z,42.70
2022-12-15T15:38:07.500Z,169.50
2022-12-15T15:46:34.767Z,296.00
2022-12-15T15:54:59.625Z,96.50
2022-12-15T16:03:22.720Z,117.50
2022-12-15T16:11:47.128Z,58.70
2022-12-15T16:20:13.128Z,61.30
2022-12-15T16:28:37.044Z,57.20
2022-12-15T16:37:00.346Z,108.90
2022-12-15T16:45:25.680Z,77.20
2022-12-15T16:53:48.667Z,39.90
2022-12-15T17:02:27.786Z,40.50
2022-12-15T17:10:51.679Z,50.00
2022-12-15T17:19:20.707Z,49.00
2022-12-15T17:27:45.907Z,42.60
2022-12-15T17:36:19.222Z,46.10
2022-12-15T17:44:42.206Z,73.90
2022-12-15T17:53:06.590Z,47.00
2022-12-15T18:01:29.567Z,38.50
2022-12-15T18:09:53.231Z,38.30
2022-12-15T18:18:18.135Z,31.70
2022-12-15T18:26:41.029Z,51.50
2022-12-15T18:35:15.168Z,41.10
2022-12-15T18:43:38.259Z,42.30
2022-12-15T18:52:01.139Z,39.50
2022-12-15T19:00:30.293Z,32.90
2022-12-15T19:08:53.502Z,28.30
2022-12-15T19:17:40.116Z,29.50
2022-12-15T19:26:03.411Z,51.00
2022-12-15T19:34:28.372Z,43.80
2022-12-15T19:42:55.535Z,40.40
2022-12-15T19:51:23.145Z,36.00
2022-12-15T19:59:46.131Z,34.20
2022-12-15T20:08:18.127Z,32.70
2022-12-15T20:16:43.351Z,26.20
2022-12-15T20:25:06.564Z,31.40
2022-12-15T20:33:29.739Z,32.20
2022-12-15T20:41:54.719Z,47.50
2022-12-15T20:50:21.767Z,43.40
2022-12-15T20:58:46.130Z,63.40
2022-12-15T21:07:12.477Z,79.40
2022-12-15T21:15:35.286Z,74.50
2022-12-15T21:23:59.996Z,70.50
2022-12-15T21:32:22.867Z,61.80
2022-12-15T21:40:45.752Z,65.10
2022-12-15T21:49:18.617Z,73.90
2022-12-15T21:57:41.577Z,72.90
2022-12-15T22:06:04.677Z,85.90
2022-12-15T22:14:33.973Z,62.70
2022-12-15T22:22:56.859Z,59.20
2022-12-15T22:31:19.988Z,63.00
2022-12-15T22:39:43.119Z,53.40
2022-12-15T22:48:06.086Z,58.20
2022-12-15T22:56:37.394Z,60.00
2022-12-15T23:05:00.735Z,62.00
2022-12-15T23:13:23.727Z,51.90
2022-12-15T23:21:46.789Z,60.70
2022-12-15T23:30:10.066Z,64.20
2022-12-15T23:38:33.084Z,57.40
2022-12-15T23:47:01.486Z,64.90
2022-12-15T23:55:24.491Z,59.00
